sensor_id;sensor_type;location;lat;lon;timestamp;pressure;altitude;pressure_sealevel;temperature
37452;BMP280;23314;51.114;6.900;2023-04-15T00:00:52;100440.00;;;7.94
37452;BMP280;23314;51.114;6.900;2023-04-15T00:03:18;100440.78;;;7.91
37452;BMP280;23314;51.114;6.900;2023-04-15T00:05:44;100442.31;;;7.88
37452;BMP280;23314;51.114;6.900;2023-04-15T00:08:09;100442.31;;;7.85
37452;BMP280;23314;51.114;6.900;2023-04-15T00:10:34;100440.81;;;7.84
37452;BMP280;23314;51.114;6.900;2023-04-15T00:13:00;100431.72;;;7.81
37452;BMP280;23314;51.114;6.900;2023-04-15T00:15:26;100444.63;;;7.79
37452;BMP280;23314;51.114;6.900;2023-04-15T00:17:51;100446.53;;;7.75
37452;BMP280;23314;51.114;6.900;2023-04-15T00:20:17;100443.13;;;7.71
37452;BMP280;23314;51.114;6.900;2023-04-15T00:22:42;100436.00;;;7.68
37452;BMP280;23314;51.114;6.900;2023-04-15T00:25:07;100432.19;;;7.65
37452;BMP280;23314;51.114;6.900;2023-04-15T00:27:33;100430.28;;;7.62
37452;BMP280;23314;51.114;6.900;2023-04-15T00:29:59;100430.31;;;7.59
37452;BMP280;23314;51.114;6.900;2023-04-15T00:32:24;100436.78;;;7.58
37452;BMP280;23314;51.114;6.900;2023-04-15T00:34:49;100430.72;;;7.53
37452;BMP280;23314;51.114;6.900;2023-04-15T00:37:15;100428.47;;;7.52
37452;BMP280;23314;51.114;6.900;2023-04-15T00:39:40;100426.94;;;7.47
37452;BMP280;23314;51.114;6.900;2023-04-15T00:42:06;100437.22;;;7.45
37452;BMP280;23314;51.114;6.900;2023-04-15T00:44:31;100437.22;;;7.42
37452;BMP280;23314;51.114;6.900;2023-04-15T00:46:58;100437.97;;;7.38
37452;BMP280;23314;51.114;6.900;2023-04-15T00:49:24;100441.38;;;7.35
37452;BMP280;23314;51.114;6.900;2023-04-15T00:51:49;100440.28;;;7.33
37452;BMP280;23314;51.114;6.900;2023-04-15T00:54:15;100438.00;;;7.28
37452;BMP280;23314;51.114;6.900;2023-04-15T00:56:40;100433.09;;;7.26
37452;BMP280;23314;51.114;6.900;2023-04-15T00:59:07;100434.59;;;7.23
37452;BMP280;23314;51.114;6.900;2023-04-15T01:01:34;100440.72;;;7.20
37452;BMP280;23314;51.114;6.900;2023-04-15T01:03:59;100435.03;;;7.18
37452;BMP280;23314;51.114;6.900;2023-04-15T01:06:25;100435.78;;;7.15
37452;BMP280;23314;51.114;6.900;2023-04-15T01:08:51;100427.44;;;7.13
37452;BMP280;23314;51.114;6.900;2023-04-15T01:11:18;100434.25;;;7.11
37452;BMP280;23314;51.114;6.900;2023-04-15T01:13:43;100426.31;;;7.07
37452;BMP280;23314;51.114;6.900;2023-04-15T01:16:09;100432.38;;;7.04
37452;BMP280;23314;51.114;6.900;2023-04-15T01:18:36;100433.13;;;7.01
37452;BMP280;23314;51.114;6.900;2023-04-15T01:21:04;100429.34;;;6.98
37452;BMP280;23314;51.114;6.900;2023-04-15T01:23:30;100438.44;;;6.97
37452;BMP280;23314;51.114;6.900;2023-04-15T01:25:56;100433.19;;;6.93
37452;BMP280;23314;51.114;6.900;2023-04-15T01:28:22;100429.38;;;6.91
37452;BMP280;23314;51.114;6.900;2023-04-15T01:30:48;100428.25;;;6.88
37452;BMP280;23314;51.114;6.900;2023-04-15T01:33:13;100432.78;;;6.84
37452;BMP280;23314;51.114;6.900;2023-04-15T01:35:38;100434.34;;;6.82
37452;BMP280;23314;51.114;6.900;2023-04-15T01:38:05;100440.00;;;6.80
37452;BMP280;23314;51.114;6.900;2023-04-15T01:40:32;100435.06;;;6.75
37452;BMP280;23314;51.114;6.900;2023-04-15T01:42:58;100440.75;;;6.73
37452;BMP280;23314;51.114;6.900;2023-04-15T01:45:23;100438.84;;;6.70
37452;BMP280;23314;51.114;6.900;2023-04-15T01:47:49;100434.31;;;6.67
37452;BMP280;23314;51.114;6.900;2023-04-15T01:50:15;100434.72;;;6.66
37452;BMP280;23314;51.114;6.900;2023-04-15T01:52:40;100438.09;;;6.63
37452;BMP280;23314;51.114;6.900;2023-04-15T01:55:07;100430.53;;;6.61
37452;BMP280;23314;51.114;6.900;2023-04-15T01:57:33;100432.03;;;6.58
37452;BMP280;23314;51.114;6.900;2023-04-15T01:59:59;100430.94;;;6.56
37452;BMP280;23314;51.114;6.900;2023-04-15T02:02:24;100432.81;;;6.55
37452;BMP280;23314;51.114;6.900;2023-04-15T02:04:49;100424.84;;;6.52
37452;BMP280;23314;51.114;6.900;2023-04-15T02:07:15;100435.06;;;6.46
37452;BMP280;23314;51.114;6.900;2023-04-15T02:09:40;100432.03;;;6.44
37452;BMP280;23314;51.114;6.900;2023-04-15T02:12:05;100426.38;;;6.42
37452;BMP280;23314;51.114;6.900;2023-04-15T02:14:31;100428.25;;;6.38
37452;BMP280;23314;51.114;6.900;2023-04-15T02:16:56;100421.81;;;6.35
37452;BMP280;23314;51.114;6.900;2023-04-15T02:19:22;100435.44;;;6.34
37452;BMP280;23314;51.114;6.900;2023-04-15T02:21:47;100435.44;;;6.30
37452;BMP280;23314;51.114;6.900;2023-04-15T02:24:12;100433.56;;;6.27
37452;BMP280;23314;51.114;6.900;2023-04-15T02:26:38;100438.47;;;6.25
37452;BMP280;23314;51.114;6.900;2023-04-15T02:29:03;100439.59;;;6.24
37452;BMP280;23314;51.114;6.900;2023-04-15T02:31:28;100441.84;;;6.22
37452;BMP280;23314;51.114;6.900;2023-04-15T02:33:54;100438.47;;;6.21
37452;BMP280;23314;51.114;6.900;2023-04-15T02:36:19;100442.59;;;6.19
37452;BMP280;23314;51.114;6.900;2023-04-15T02:38:45;100445.63;;;6.17
37452;BMP280;23314;51.114;6.900;2023-04-15T02:41:11;100440.69;;;6.15
37452;BMP280;23314;51.114;6.900;2023-04-15T02:43:36;100446.38;;;6.14
37452;BMP280;23314;51.114;6.900;2023-04-15T02:46:02;100448.25;;;6.13
37452;BMP280;23314;51.114;6.900;2023-04-15T02:48:28;100452.44;;;6.11
37452;BMP280;23314;51.114;6.900;2023-04-15T02:51:10;100455.47;;;6.09
37452;BMP280;23314;51.114;6.900;2023-04-15T02:53:35;100456.94;;;6.07
37452;BMP280;23314;51.114;6.900;2023-04-15T02:56:00;100460.31;;;6.04
37452;BMP280;23314;51.114;6.900;2023-04-15T02:58:25;100461.47;;;6.03
37452;BMP280;23314;51.114;6.900;2023-04-15T03:00:51;100463.38;;;5.98
37452;BMP280;23314;51.114;6.900;2023-04-15T03:03:16;100470.94;;;5.96
37452;BMP280;23314;51.114;6.900;2023-04-15T03:05:43;100471.28;;;5.95
37452;BMP280;23314;51.114;6.900;2023-04-15T03:08:08;100465.22;;;5.91
37452;BMP280;23314;51.114;6.900;2023-04-15T03:10:34;100462.94;;;5.89
37452;BMP280;23314;51.114;6.900;2023-04-15T03:12:59;100472.78;;;5.89
37452;BMP280;23314;51.114;6.900;2023-04-15T03:15:25;100475.03;;;5.87
37452;BMP280;23314;51.114;6.900;2023-04-15T03:17:51;100472.38;;;5.83
37452;BMP280;23314;51.114;6.900;2023-04-15T03:20:17;100474.28;;;5.82
37452;BMP280;23314;51.114;6.900;2023-04-15T03:22:42;100474.25;;;5.79
37452;BMP280;23314;51.114;6.900;2023-04-15T03:25:08;100469.34;;;5.77
37452;BMP280;23314;51.114;6.900;2023-04-15T03:27:33;100470.47;;;5.76
37452;BMP280;23314;51.114;6.900;2023-04-15T03:29:59;100485.59;;;5.76
37452;BMP280;23314;51.114;6.900;2023-04-15T03:32:24;100480.25;;;5.72
37452;BMP280;23314;51.114;6.900;2023-04-15T03:34:49;100481.75;;;5.70
37452;BMP280;23314;51.114;6.900;2023-04-15T03:37:15;100486.28;;;5.69
37452;BMP280;23314;51.114;6.900;2023-04-15T03:39:40;100483.63;;;5.69
37452;BMP280;23314;51.114;6.900;2023-04-15T03:42:05;100479.50;;;5.68
37452;BMP280;23314;51.114;6.900;2023-04-15T03:44:31;100481.41;;;5.67
37452;BMP280;23314;51.114;6.900;2023-04-15T03:46:56;100483.66;;;5.65
37452;BMP280;23314;51.114;6.900;2023-04-15T03:49:22;100485.53;;;5.65
37452;BMP280;23314;51.114;6.900;2023-04-15T03:51:48;100490.44;;;5.63
37452;BMP280;23314;51.114;6.900;2023-04-15T03:54:13;100497.59;;;5.62
37452;BMP280;23314;51.114;6.900;2023-04-15T03:56:39;100498.72;;;5.61
37452;BMP280;23314;51.114;6.900;2023-04-15T03:59:05;100498.34;;;5.59
37452;BMP280;23314;51.114;6.900;2023-04-15T04:01:30;100500.59;;;5.57
37452;BMP280;23314;51.114;6.900;2023-04-15T04:03:56;100502.84;;;5.55
37452;BMP280;23314;51.114;6.900;2023-04-15T04:06:21;100508.91;;;5.56
37452;BMP280;23314;51.114;6.900;2023-04-15T04:08:46;100502.47;;;5.53
37452;BMP280;23314;51.114;6.900;2023-04-15T04:11:12;100504.38;;;5.53
37452;BMP280;23314;51.114;6.900;2023-04-15T04:13:37;100510.78;;;5.51
37452;BMP280;23314;51.114;6.900;2023-04-15T04:16:03;100504.75;;;5.51
37452;BMP280;23314;51.114;6.900;2023-04-15T04:18:30;100507.41;;;5.51
37452;BMP280;23314;51.114;6.900;2023-04-15T04:20:55;100506.22;;;5.48
37452;BMP280;23314;51.114;6.900;2023-04-15T04:23:21;100502.06;;;5.47
37452;BMP280;23314;51.114;6.900;2023-04-15T04:25:46;100507.34;;;5.47
37452;BMP280;23314;51.114;6.900;2023-04-15T04:28:11;100504.72;;;5.47
37452;BMP280;23314;51.114;6.900;2023-04-15T04:30:37;100509.25;;;5.47
37452;BMP280;23314;51.114;6.900;2023-04-15T04:33:02;100514.16;;;5.48
37452;BMP280;23314;51.114;6.900;2023-04-15T04:35:27;100514.13;;;5.45
37452;BMP280;23314;51.114;6.900;2023-04-15T04:37:53;100528.13;;;5.45
37452;BMP280;23314;51.114;6.900;2023-04-15T04:40:18;100529.63;;;5.46
37452;BMP280;23314;51.114;6.900;2023-04-15T04:42:43;100529.63;;;5.46
37452;BMP280;23314;51.114;6.900;2023-04-15T04:45:09;100527.38;;;5.45
37452;BMP280;23314;51.114;6.900;2023-04-15T04:47:34;100534.19;;;5.46
37452;BMP280;23314;51.114;6.900;2023-04-15T04:50:00;100533.41;;;5.45
37452;BMP280;23314;51.114;6.900;2023-04-15T04:52:25;100529.63;;;5.46
37452;BMP280;23314;51.114;6.900;2023-04-15T04:54:50;100533.06;;;5.47
37452;BMP280;23314;51.114;6.900;2023-04-15T04:57:16;100542.50;;;5.48
37452;BMP280;23314;51.114;6.900;2023-04-15T04:59:41;100540.63;;;5.48
37452;BMP280;23314;51.114;6.900;2023-04-15T05:02:06;100539.50;;;5.49
37452;BMP280;23314;51.114;6.900;2023-04-15T05:04:32;100549.34;;;5.53
37452;BMP280;23314;51.114;6.900;2023-04-15T05:06:57;100543.66;;;5.54
37452;BMP280;23314;51.114;6.900;2023-04-15T05:09:23;100549.00;;;5.58
37452;BMP280;23314;51.114;6.900;2023-04-15T05:11:48;100546.75;;;5.60
37452;BMP280;23314;51.114;6.900;2023-04-15T05:14:14;100549.06;;;5.65
37452;BMP280;23314;51.114;6.900;2023-04-15T05:16:39;100557.38;;;5.67
37452;BMP280;23314;51.114;6.900;2023-04-15T05:19:05;100556.25;;;5.72
37452;BMP280;23314;51.114;6.900;2023-04-15T05:21:30;100551.75;;;5.76
37452;BMP280;23314;51.114;6.900;2023-04-15T05:23:56;100554.03;;;5.77
37452;BMP280;23314;51.114;6.900;2023-04-15T05:26:21;100554.03;;;5.81
37452;BMP280;23314;51.114;6.900;2023-04-15T05:28:46;100563.13;;;5.87
37452;BMP280;23314;51.114;6.900;2023-04-15T05:31:12;100565.44;;;5.92
37452;BMP280;23314;51.114;6.900;2023-04-15T05:33:38;100557.53;;;5.99
37452;BMP280;23314;51.114;6.900;2023-04-15T05:36:03;100571.97;;;6.09
37452;BMP280;23314;51.114;6.900;2023-04-15T05:38:28;100574.66;;;6.20
37452;BMP280;23314;51.114;6.900;2023-04-15T05:40:54;100571.28;;;6.30
37452;BMP280;23314;51.114;6.900;2023-04-15T05:43:19;100572.09;;;6.42
37452;BMP280;23314;51.114;6.900;2023-04-15T05:45:44;100581.97;;;6.56
37452;BMP280;23314;51.114;6.900;2023-04-15T05:48:10;100583.53;;;6.68
37452;BMP280;23314;51.114;6.900;2023-04-15T05:50:35;100589.97;;;6.85
37452;BMP280;23314;51.114;6.900;2023-04-15T05:53:00;100595.69;;;7.01
37452;BMP280;23314;51.114;6.900;2023-04-15T05:55:26;100585.84;;;7.20
37452;BMP280;23314;51.114;6.900;2023-04-15T05:57:51;100584.69;;;7.39
37452;BMP280;23314;51.114;6.900;2023-04-15T06:00:17;100594.50;;;7.60
37452;BMP280;23314;51.114;6.900;2023-04-15T06:02:42;100592.56;;;7.82
37452;BMP280;23314;51.114;6.900;2023-04-15T06:05:08;100596.31;;;8.03
37452;BMP280;23314;51.114;6.900;2023-04-15T06:07:35;100592.78;;;8.20
37452;BMP280;23314;51.114;6.900;2023-04-15T06:10:02;100598.06;;;8.35
37452;BMP280;23314;51.114;6.900;2023-04-15T06:12:28;100602.50;;;8.52
37452;BMP280;23314;51.114;6.900;2023-04-15T06:14:53;100608.09;;;8.69
37452;BMP280;23314;51.114;6.900;2023-04-15T06:17:18;100607.63;;;8.85
37452;BMP280;23314;51.114;6.900;2023-04-15T06:19:43;100609.38;;;9.03
37452;BMP280;23314;51.114;6.900;2023-04-15T06:22:09;100620.69;;;9.18
37452;BMP280;23314;51.114;6.900;2023-04-15T06:24:34;100617.91;;;9.32
37452;BMP280;23314;51.114;6.900;2023-04-15T06:27:01;100625.34;;;9.48
37452;BMP280;23314;51.114;6.900;2023-04-15T06:29:27;100623.31;;;9.63
37452;BMP280;23314;51.114;6.900;2023-04-15T06:31:53;100633.03;;;9.77
37452;BMP280;23314;51.114;6.900;2023-04-15T06:34:20;100630.59;;;9.93
37452;BMP280;23314;51.114;6.900;2023-04-15T06:36:45;100636.16;;;10.06
37452;BMP280;23314;51.114;6.900;2023-04-15T06:39:11;100635.97;;;10.21
37452;BMP280;23314;51.114;6.900;2023-04-15T06:41:36;100644.47;;;10.39
37452;BMP280;23314;51.114;6.900;2023-04-15T06:44:01;100648.44;;;10.58
37452;BMP280;23314;51.114;6.900;2023-04-15T06:46:27;100643.53;;;10.81
37452;BMP280;23314;51.114;6.900;2023-04-15T06:48:52;100648.75;;;11.12
37452;BMP280;23314;51.114;6.900;2023-04-15T06:51:17;100648.53;;;11.46
37452;BMP280;23314;51.114;6.900;2023-04-15T06:53:43;100653.34;;;11.75
37452;BMP280;23314;51.114;6.900;2023-04-15T06:56:08;100662.06;;;11.99
37452;BMP280;23314;51.114;6.900;2023-04-15T06:58:34;100655.47;;;12.20
37452;BMP280;23314;51.114;6.900;2023-04-15T07:01:00;100655.00;;;12.42
37452;BMP280;23314;51.114;6.900;2023-04-15T07:03:25;100659.88;;;12.64
37452;BMP280;23314;51.114;6.900;2023-04-15T07:05:52;100662.16;;;12.82
37452;BMP280;23314;51.114;6.900;2023-04-15T07:08:18;100668.16;;;13.02
37452;BMP280;23314;51.114;6.900;2023-04-15T07:10:45;100658.09;;;13.07
37452;BMP280;23314;51.114;6.900;2023-04-15T07:13:10;100662.00;;;13.18
37452;BMP280;23314;51.114;6.900;2023-04-15T07:15:35;100670.94;;;13.28
37452;BMP280;23314;51.114;6.900;2023-04-15T07:18:01;100676.56;;;13.34
37452;BMP280;23314;51.114;6.900;2023-04-15T07:20:26;100685.00;;;13.32
37452;BMP280;23314;51.114;6.900;2023-04-15T07:22:51;100680.13;;;13.44
37452;BMP280;23314;51.114;6.900;2023-04-15T07:25:17;100682.19;;;13.52
37452;BMP280;23314;51.114;6.900;2023-04-15T07:27:43;100681.91;;;13.63
37452;BMP280;23314;51.114;6.900;2023-04-15T07:30:09;100687.16;;;13.67
37452;BMP280;23314;51.114;6.900;2023-04-15T07:32:35;100695.75;;;13.75
37452;BMP280;23314;51.114;6.900;2023-04-15T07:35:00;100689.88;;;13.80
37452;BMP280;23314;51.114;6.900;2023-04-15T07:37:27;100701.97;;;13.84
37452;BMP280;23314;51.114;6.900;2023-04-15T07:39:53;100701.75;;;13.79
37452;BMP280;23314;51.114;6.900;2023-04-15T07:42:19;100707.59;;;13.77
37452;BMP280;23314;51.114;6.900;2023-04-15T07:44:44;100708.53;;;13.83
37452;BMP280;23314;51.114;6.900;2023-04-15T07:47:10;100708.78;;;13.89
37452;BMP280;23314;51.114;6.900;2023-04-15T07:49:35;100720.03;;;13.97
37452;BMP280;23314;51.114;6.900;2023-04-15T07:52:01;100718.22;;;13.94
37452;BMP280;23314;51.114;6.900;2023-04-15T07:54:27;100710.81;;;13.98
37452;BMP280;23314;51.114;6.900;2023-04-15T07:56:52;100708.69;;;14.06
37452;BMP280;23314;51.114;6.900;2023-04-15T07:59:17;100720.38;;;14.12
37452;BMP280;23314;51.114;6.900;2023-04-15T08:01:43;100728.34;;;14.28
37452;BMP280;23314;51.114;6.900;2023-04-15T08:04:09;100732.00;;;14.34
37452;BMP280;23314;51.114;6.900;2023-04-15T08:06:34;100724.03;;;14.44
37452;BMP280;23314;51.114;6.900;2023-04-15T08:09:00;100726.19;;;14.49
37452;BMP280;23314;51.114;6.900;2023-04-15T08:11:26;100739.19;;;14.50
37452;BMP280;23314;51.114;6.900;2023-04-15T08:13:51;100734.88;;;14.66
37452;BMP280;23314;51.114;6.900;2023-04-15T08:16:25;100735.59;;;14.79
37452;BMP280;23314;51.114;6.900;2023-04-15T08:18:53;100744.56;;;14.76
37452;BMP280;23314;51.114;6.900;2023-04-15T08:21:19;100739.81;;;14.67
37452;BMP280;23314;51.114;6.900;2023-04-15T08:23:46;100744.97;;;14.75
37452;BMP280;23314;51.114;6.900;2023-04-15T08:26:12;100767.94;;;14.76
37452;BMP280;23314;51.114;6.900;2023-04-15T08:28:39;100753.56;;;14.69
37452;BMP280;23314;51.114;6.900;2023-04-15T08:31:05;100759.03;;;14.66
37452;BMP280;23314;51.114;6.900;2023-04-15T08:33:31;100763.69;;;14.65
37452;BMP280;23314;51.114;6.900;2023-04-15T08:35:56;100767.13;;;14.53
37452;BMP280;23314;51.114;6.900;2023-04-15T08:38:22;100769.25;;;14.58
37452;BMP280;23314;51.114;6.900;2023-04-15T08:40:48;100770.22;;;14.64
37452;BMP280;23314;51.114;6.900;2023-04-15T08:43:21;100778.03;;;14.72
37452;BMP280;23314;51.114;6.900;2023-04-15T08:45:53;100772.44;;;14.79
37452;BMP280;23314;51.114;6.900;2023-04-15T08:48:20;100779.53;;;14.85
37452;BMP280;23314;51.114;6.900;2023-04-15T08:50:46;100777.38;;;14.93
37452;BMP280;23314;51.114;6.900;2023-04-15T08:53:12;100792.22;;;14.85
37452;BMP280;23314;51.114;6.900;2023-04-15T08:55:43;100779.00;;;14.91
37452;BMP280;23314;51.114;6.900;2023-04-15T08:58:10;100786.59;;;15.05
37452;BMP280;23314;51.114;6.900;2023-04-15T09:00:36;100786.59;;;15.05
37452;BMP280;23314;51.114;6.900;2023-04-15T09:03:05;100792.84;;;15.02
37452;BMP280;23314;51.114;6.900;2023-04-15T09:05:32;100792.22;;;14.98
37452;BMP280;23314;51.114;6.900;2023-04-15T09:07:58;100795.75;;;14.95
37452;BMP280;23314;51.114;6.900;2023-04-15T09:10:24;100791.72;;;14.77
37452;BMP280;23314;51.114;6.900;2023-04-15T09:12:49;100792.56;;;14.74
37452;BMP280;23314;51.114;6.900;2023-04-15T09:15:14;100800.81;;;14.93
37452;BMP280;23314;51.114;6.900;2023-04-15T09:17:44;100797.91;;;15.13
37452;BMP280;23314;51.114;6.900;2023-04-15T09:20:14;100796.22;;;15.28
37452;BMP280;23314;51.114;6.900;2023-04-15T09:22:41;100805.25;;;15.34
37452;BMP280;23314;51.114;6.900;2023-04-15T09:25:24;100819.84;;;15.33
37452;BMP280;23314;51.114;6.900;2023-04-15T09:30:21;100818.06;;;15.17
37452;BMP280;23314;51.114;6.900;2023-04-15T09:32:55;100820.13;;;15.13
37452;BMP280;23314;51.114;6.900;2023-04-15T09:35:22;100825.25;;;15.20
37452;BMP280;23314;51.114;6.900;2023-04-15T09:37:51;100818.81;;;15.18
37452;BMP280;23314;51.114;6.900;2023-04-15T09:40:36;100822.47;;;15.24
37452;BMP280;23314;51.114;6.900;2023-04-15T09:43:03;100820.19;;;15.35
37452;BMP280;23314;51.114;6.900;2023-04-15T09:45:29;100830.34;;;15.53
37452;BMP280;23314;51.114;6.900;2023-04-15T09:48:13;100816.41;;;15.68
37452;BMP280;23314;51.114;6.900;2023-04-15T09:50:40;100829.91;;;15.77
37452;BMP280;23314;51.114;6.900;2023-04-15T09:53:08;100841.59;;;15.83
37452;BMP280;23314;51.114;6.900;2023-04-15T09:55:34;100854.63;;;15.85
37452;BMP280;23314;51.114;6.900;2023-04-15T09:57:59;100838.63;;;15.81
37452;BMP280;23314;51.114;6.900;2023-04-15T10:00:24;100841.94;;;15.85
37452;BMP280;23314;51.114;6.900;2023-04-15T10:02:50;100835.59;;;15.79
37452;BMP280;23314;51.114;6.900;2023-04-15T10:05:16;100839.00;;;15.70
37452;BMP280;23314;51.114;6.900;2023-04-15T10:07:42;100840.06;;;15.73
37452;BMP280;23314;51.114;6.900;2023-04-15T10:10:08;100854.09;;;15.77
37452;BMP280;23314;51.114;6.900;2023-04-15T10:12:36;100855.13;;;15.70
37452;BMP280;23314;51.114;6.900;2023-04-15T10:15:03;100851.00;;;15.79
37452;BMP280;23314;51.114;6.900;2023-04-15T10:17:32;100858.75;;;15.99
37452;BMP280;23314;51.114;6.900;2023-04-15T10:20:03;100863.81;;;16.19
37452;BMP280;23314;51.114;6.900;2023-04-15T10:22:30;100857.16;;;16.33
37452;BMP280;23314;51.114;6.900;2023-04-15T10:24:55;100856.13;;;16.30
37452;BMP280;23314;51.114;6.900;2023-04-15T10:27:22;100860.41;;;16.28
37452;BMP280;23314;51.114;6.900;2023-04-15T10:29:49;100862.25;;;16.31
37452;BMP280;23314;51.114;6.900;2023-04-15T10:32:16;100856.28;;;16.36
37452;BMP280;23314;51.114;6.900;2023-04-15T10:34:42;100858.34;;;16.54
37452;BMP280;23314;51.114;6.900;2023-04-15T10:37:08;100869.63;;;16.80
37452;BMP280;23314;51.114;6.900;2023-04-15T10:44:31;100873.47;;;17.20
37452;BMP280;23314;51.114;6.900;2023-04-15T10:46:57;100863.28;;;17.24
37452;BMP280;23314;51.114;6.900;2023-04-15T10:49:25;100874.66;;;17.19
37452;BMP280;23314;51.114;6.900;2023-04-15T10:51:52;100883.00;;;17.02
37452;BMP280;23314;51.114;6.900;2023-04-15T10:59:28;100886.16;;;16.92
37452;BMP280;23314;51.114;6.900;2023-04-15T11:02:02;100886.25;;;16.88
37452;BMP280;23314;51.114;6.900;2023-04-15T11:04:53;100881.44;;;16.83
37452;BMP280;23314;51.114;6.900;2023-04-15T11:07:54;100881.19;;;16.81
37452;BMP280;23314;51.114;6.900;2023-04-15T11:12:46;100885.44;;;16.60
37452;BMP280;23314;51.114;6.900;2023-04-15T11:15:41;100881.56;;;16.70
37452;BMP280;23314;51.114;6.900;2023-04-15T11:18:18;100886.09;;;16.82
37452;BMP280;23314;51.114;6.900;2023-04-15T11:20:46;100895.44;;;16.91
37452;BMP280;23314;51.114;6.900;2023-04-15T11:23:13;100891.97;;;16.90
37452;BMP280;23314;51.114;6.900;2023-04-15T11:25:39;100911.88;;;16.93
37452;BMP280;23314;51.114;6.900;2023-04-15T11:28:05;100907.84;;;16.97
37452;BMP280;23314;51.114;6.900;2023-04-15T11:30:32;100909.84;;;17.06
37452;BMP280;23314;51.114;6.900;2023-04-15T11:33:01;100911.75;;;16.96
37452;BMP280;23314;51.114;6.900;2023-04-15T11:35:27;100921.00;;;16.86
37452;BMP280;23314;51.114;6.900;2023-04-15T11:37:52;100916.22;;;16.81
37452;BMP280;23314;51.114;6.900;2023-04-15T11:40:27;100913.63;;;16.77
37452;BMP280;23314;51.114;6.900;2023-04-15T11:43:13;100925.00;;;16.81
37452;BMP280;23314;51.114;6.900;2023-04-15T11:45:59;100909.97;;;16.71
37452;BMP280;23314;51.114;6.900;2023-04-15T11:48:29;100924.31;;;16.59
37452;BMP280;23314;51.114;6.900;2023-04-15T11:50:58;100928.66;;;16.65
37452;BMP280;23314;51.114;6.900;2023-04-15T11:56:03;100924.59;;;16.92
37452;BMP280;23314;51.114;6.900;2023-04-15T11:58:29;100934.53;;;17.14
37452;BMP280;23314;51.114;6.900;2023-04-15T12:00:57;100946.75;;;17.37
37452;BMP280;23314;51.114;6.900;2023-04-15T12:03:30;100947.19;;;17.26
37452;BMP280;23314;51.114;6.900;2023-04-15T12:06:22;100950.34;;;16.93
37452;BMP280;23314;51.114;6.900;2023-04-15T12:11:31;100951.56;;;16.38
37452;BMP280;23314;51.114;6.900;2023-04-15T12:14:05;100953.00;;;16.08
37452;BMP280;23314;51.114;6.900;2023-04-15T12:16:36;100969.34;;;15.79
37452;BMP280;23314;51.114;6.900;2023-04-15T12:19:08;100973.59;;;15.54
37452;BMP280;23314;51.114;6.900;2023-04-15T12:21:35;100976.16;;;15.32
37452;BMP280;23314;51.114;6.900;2023-04-15T12:24:03;100966.19;;;15.19
37452;BMP280;23314;51.114;6.900;2023-04-15T12:26:50;100981.66;;;15.15
37452;BMP280;23314;51.114;6.900;2023-04-15T12:29:16;100986.03;;;15.09
37452;BMP280;23314;51.114;6.900;2023-04-15T12:31:52;100978.00;;;15.09
37452;BMP280;23314;51.114;6.900;2023-04-15T12:34:26;100991.41;;;14.96
37452;BMP280;23314;51.114;6.900;2023-04-15T12:36:53;100996.25;;;14.89
37452;BMP280;23314;51.114;6.900;2023-04-15T12:39:22;101000.28;;;14.80
37452;BMP280;23314;51.114;6.900;2023-04-15T12:41:48;100997.25;;;14.78
37452;BMP280;23314;51.114;6.900;2023-04-15T12:44:13;101007.06;;;14.85
37452;BMP280;23314;51.114;6.900;2023-04-15T12:46:38;101007.41;;;14.87
37452;BMP280;23314;51.114;6.900;2023-04-15T12:49:04;101005.56;;;14.84
37452;BMP280;23314;51.114;6.900;2023-04-15T12:51:29;101007.38;;;14.74
37452;BMP280;23314;51.114;6.900;2023-04-15T12:53:56;100996.34;;;14.56
37452;BMP280;23314;51.114;6.900;2023-04-15T12:56:22;101025.81;;;14.43
37452;BMP280;23314;51.114;6.900;2023-04-15T12:58:48;101024.91;;;14.33
37452;BMP280;23314;51.114;6.900;2023-04-15T13:01:13;101031.22;;;14.26
37452;BMP280;23314;51.114;6.900;2023-04-15T13:03:38;101032.50;;;14.22
37452;BMP280;23314;51.114;6.900;2023-04-15T13:06:04;101044.81;;;14.19
37452;BMP280;23314;51.114;6.900;2023-04-15T13:08:30;101048.06;;;14.10
37452;BMP280;23314;51.114;6.900;2023-04-15T13:10:56;101052.75;;;14.06
37452;BMP280;23314;51.114;6.900;2023-04-15T13:13:21;101052.03;;;14.06
37452;BMP280;23314;51.114;6.900;2023-04-15T13:15:46;101061.69;;;14.03
37452;BMP280;23314;51.114;6.900;2023-04-15T13:18:12;101062.91;;;13.98
37452;BMP280;23314;51.114;6.900;2023-04-15T13:20:38;101072.13;;;13.97
37452;BMP280;23314;51.114;6.900;2023-04-15T13:23:03;101070.34;;;13.91
37452;BMP280;23314;51.114;6.900;2023-04-15T13:25:29;101067.84;;;13.83
37452;BMP280;23314;51.114;6.900;2023-04-15T13:27:54;101073.97;;;13.84
37452;BMP280;23314;51.114;6.900;2023-04-15T13:30:19;101073.22;;;13.83
37452;BMP280;23314;51.114;6.900;2023-04-15T13:32:45;101076.97;;;13.86
37452;BMP280;23314;51.114;6.900;2023-04-15T13:35:10;101086.13;;;13.89
37452;BMP280;23314;51.114;6.900;2023-04-15T13:37:36;101086.28;;;13.98
37452;BMP280;23314;51.114;6.900;2023-04-15T13:40:01;101083.28;;;14.12
37452;BMP280;23314;51.114;6.900;2023-04-15T13:42:27;101089.31;;;14.16
37452;BMP280;23314;51.114;6.900;2023-04-15T13:44:52;101094.88;;;14.26
37452;BMP280;23314;51.114;6.900;2023-04-15T13:47:20;101094.34;;;14.31
37452;BMP280;23314;51.114;6.900;2023-04-15T13:49:46;101098.22;;;14.30
37452;BMP280;23314;51.114;6.900;2023-04-15T13:52:11;101107.78;;;14.31
37452;BMP280;23314;51.114;6.900;2023-04-15T13:54:37;101098.72;;;14.41
37452;BMP280;23314;51.114;6.900;2023-04-15T13:57:03;101099.97;;;14.53
37452;BMP280;23314;51.114;6.900;2023-04-15T13:59:29;101096.16;;;14.67
37452;BMP280;23314;51.114;6.900;2023-04-15T14:01:54;101103.16;;;14.64
37452;BMP280;23314;51.114;6.900;2023-04-15T14:04:20;101101.88;;;14.69
37452;BMP280;23314;51.114;6.900;2023-04-15T14:06:45;101116.13;;;14.66
37452;BMP280;23314;51.114;6.900;2023-04-15T14:09:10;101116.16;;;14.49
37452;BMP280;23314;51.114;6.900;2023-04-15T14:11:39;101112.63;;;14.36
37452;BMP280;23314;51.114;6.900;2023-04-15T14:14:04;101125.81;;;14.30
37452;BMP280;23314;51.114;6.900;2023-04-15T14:16:33;101115.75;;;14.18
37452;BMP280;23314;51.114;6.900;2023-04-15T14:18:59;101116.81;;;14.04